کابل, افغانستان

08:39 AM AFT on ژانویه 28, 2015 (GMT +0430)
Kabul | Change Station
CLOSE
Current Station
Airport
Location: Kabul,
Elevation: 5876 ft
Nearby Weather Stations

Elev 5876 ft 34.57 °N, 69.21 °E | Updated 34 minutes ago

Haze
مه
25 °F
Feels Like 19 °F
N
5
باد متغير باد from NNW

امروز
High -- | Low -- °F
--% Chance of Precip.
دیروز
High -- | Low -- °F
Precip. -- در
6:54 AM 5:18 PM
ربع اول, 60% visible
فشار 30.18 در
ديد 2.5 مايل، ميل (در برابر كيلومتر
ابری بیشتر ابری 10000 ft
باد سرد 19 °F
قطره شبنم 10 °F
رطوبت 54%
بارش باران 0.00 در
برف عمیق Not available.
مادون قرمز 0 out of 12
Pollen Not available.
تمیزی هوا Not available.
Flu Activity Not available.
SPECI OAKB 280335Z 33004KT 4000 HZ BKN100 M04/M12 Q1022 RMK GRN

More Conditions Fewer Conditions

فشار 30.18 در
ديد 2.5 مايل، ميل (در برابر كيلومتر
ابری بیشتر ابری 10000 ft
باد سرد 19 °F
قطره شبنم 10 °F
رطوبت 54%
بارش باران 0.00 در
برف عمیق Not available.
مادون قرمز 0 out of 12
Pollen Not available.
تمیزی هوا Not available.
Flu Activity Not available.
SPECI OAKB 280335Z 33004KT 4000 HZ BKN100 M04/M12 Q1022 RMK GRN

More Conditions Fewer Conditions

10-Day Weather Forecast

Almanac

ستاره شناسی

Jan. 28, 2015 Rise Set
وقت حقیقی
تاریک و روشن اجتماعی
تاریک روشن دریایی
شفق و فلق نجومی
ماه
میزان روشنایی روز
طول روز
Tomorrow will be .
, % of the Moon is Illuminated

Today's Extremes

Country Highs Country Lows

Community

WunderPhotos

Upload Photos

1,791,086 photos uploaded!

WunderBlogs® & News

Nearby

تمیزی هوا

  تمیزی هوا AQ Index آلاینده
Not available.

عمق برف

Station Depth Elevation

Earthquake Activity

شهر Distance Mag. Time & Date
Minimum magnitude displayed is 2.5.

Coastal Water Temperatures

منطقه درجه حرارت

Nearby Weather Stations